Time;durP1;ratioP1;P1;durP2;ratioP2;P2;SDS_P1;SDS_P2;PMS_P1;PMS_P2;Temp;Humidity;BMP_temperature;BMP_pressure;BME280_temperature;BME280_humidity;BME280_pressure;Samples;Min_cycle;Max_cycle;Signal;HPM_P1;HPM_P2
2022/01/30 00:02:04;;;;;;;11.52;3.58;;;;;;;6.73;55.65;98579.12;4406665;32;20110;-84
2022/01/30 00:04:30;;;;;;;11.00;3.55;;;;;;;6.87;56.08;98583.78;4395230;32;20148;-85
2022/01/30 00:06:55;;;;;;;11.65;4.00;;;;;;;6.88;56.00;98580.25;4406545;32;20090;-85
2022/01/30 00:09:22;;;;;;;12.70;3.80;;;;;;;6.85;56.15;98578.59;4395225;32;20095;-85
2022/01/30 00:11:56;;;;;;;13.90;3.80;;;;;;;6.92;56.60;98567.87;4406457;32;20482;-84
2022/01/30 00:14:24;;;;;;;10.05;3.55;;;;;;;7.02;57.09;98562.16;4395340;32;20082;-85
2022/01/30 00:16:57;;;;;;;12.43;3.85;;;;;;;7.03;56.98;98547.28;4394064;32;20146;-84
2022/01/30 00:19:30;;;;;;;13.60;4.25;;;;;;;7.12;56.88;98552.13;4395190;32;20107;-84
2022/01/30 00:22:13;;;;;;;15.38;3.72;;;;;;;7.08;57.08;98537.47;4395290;32;20169;-85
2022/01/30 00:25:02;;;;;;;14.32;4.20;;;;;;;7.03;57.00;98534.19;4394172;32;20098;-85
2022/01/30 00:27:54;;;;;;;13.32;3.60;;;;;;;7.01;56.82;98529.03;4394138;32;20524;-84
2022/01/30 00:30:15;;;;;;;12.68;3.90;;;;;;;6.96;57.40;98520.53;4394600;32;20140;-84
2022/01/30 00:32:41;;;;;;;13.05;3.58;;;;;;;7.08;57.27;98500.78;4394784;32;20142;-84
2022/01/30 00:35:09;;;;;;;13.73;3.70;;;;;;;6.98;57.51;98494.28;4406529;32;20148;-84
2022/01/30 00:37:39;;;;;;;13.07;3.85;;;;;;;7.02;57.21;98485.38;4395251;32;20117;-85
2022/01/30 00:40:06;;;;;;;11.00;3.70;;;;;;;7.03;56.62;98481.81;4394205;32;20154;-85
2022/01/30 00:42:31;;;;;;;10.95;3.58;;;;;;;7.12;56.65;98478.78;4395260;32;20390;-84
2022/01/30 00:44:57;;;;;;;12.30;3.95;;;;;;;7.11;56.39;98481.47;4393699;32;20129;-85
2022/01/30 00:47:22;;;;;;;15.48;3.62;;;;;;;7.18;56.43;98477.66;4395028;32;20339;-85
2022/01/30 00:49:47;;;;;;;10.98;3.70;;;;;;;6.99;56.56;98469.78;4406268;32;20145;-85
2022/01/30 00:52:16;;;;;;;11.77;4.10;;;;;;;6.93;56.75;98476.13;4405857;32;20126;-84
2022/01/30 00:54:43;;;;;;;10.88;3.53;;;;;;;7.10;56.05;98470.13;4394961;32;20086;-85
2022/01/30 00:57:09;;;;;;;12.88;3.47;;;;;;;7.14;55.65;98453.34;4405888;32;20121;-84
2022/01/30 00:59:34;;;;;;;11.90;4.18;;;;;;;7.21;55.48;98467.03;4394962;32;20095;-83
2022/01/30 01:01:59;;;;;;;12.20;3.70;;;;;;;7.01;55.17;98460.06;4394895;32;20427;-85
2022/01/30 01:04:25;;;;;;;10.85;3.62;;;;;;;7.24;54.84;98459.91;4394508;32;20090;-84
2022/01/30 01:06:50;;;;;;;12.95;3.83;;;;;;;7.00;54.74;98450.53;4394751;32;20090;-85
2022/01/30 01:09:21;;;;;;;13.50;3.75;;;;;;;7.15;54.77;98431.50;4394705;32;20211;-84
2022/01/30 01:12:26;;;;;;;11.45;3.92;;;;;;;7.18;54.40;98448.84;4394804;32;20086;-83
2022/01/30 01:25:38;;;;;;;13.75;4.10;;;;;;;6.92;53.60;98435.16;4394667;32;20120;-84
2022/01/30 01:28:04;;;;;;;14.77;4.12;;;;;;;7.01;53.00;98428.66;4394703;32;20091;-84
2022/01/30 01:30:29;;;;;;;12.68;3.72;;;;;;;7.11;53.53;98413.34;4394616;32;20094;-83
2022/01/30 01:32:54;;;;;;;11.77;4.07;;;;;;;7.01;52.87;98408.56;4394654;32;20090;-84
2022/01/30 01:35:20;;;;;;;14.70;4.05;;;;;;;6.98;52.78;98416.56;4394494;32;20090;-82
2022/01/30 01:37:52;;;;;;;13.05;4.12;;;;;;;7.08;52.61;98402.09;4394648;32;20431;-84
2022/01/30 01:40:17;;;;;;;13.45;3.70;;;;;;;7.16;52.43;98406.16;4393430;32;20103;-83
2022/01/30 01:42:44;;;;;;;13.88;4.10;;;;;;;7.16;52.15;98406.97;4394672;32;20387;-83
2022/01/30 01:45:10;;;;;;;13.70;4.07;;;;;;;7.03;52.84;98400.63;4394453;32;20098;-84
2022/01/30 01:47:35;;;;;;;13.48;4.40;;;;;;;7.17;52.46;98398.22;4406073;32;20113;-85
2022/01/30 01:50:01;;;;;;;14.30;3.92;;;;;;;7.19;52.12;98398.16;4394395;32;20431;-85
2022/01/30 01:52:26;;;;;;;14.23;3.92;;;;;;;7.23;52.46;98394.47;4393574;32;20156;-85
2022/01/30 01:54:54;;;;;;;12.07;4.22;;;;;;;7.18;52.17;98386.81;4394736;32;20090;-85
2022/01/30 01:57:20;;;;;;;;;;;;;;;7.19;52.28;98390.28;4406061;32;20109;-84
2022/01/30 01:59:46;;;;;;;12.15;3.95;;;;;;;7.30;52.11;98390.59;4405942;32;20288;-85
2022/01/30 02:02:11;;;;;;;12.10;3.75;;;;;;;7.21;52.02;98388.44;4394519;32;20086;-85
2022/01/30 02:04:39;;;;;;;12.85;4.53;;;;;;;7.24;51.97;98372.56;4405053;32;20501;-84
2022/01/30 02:09:49;;;;;;;13.02;3.65;;;;;;;7.24;51.88;98362.97;4404149;32;20116;-84
2022/01/30 02:12:25;;;;;;;14.65;3.80;;;;;;;7.02;51.93;98355.25;4405959;32;20387;-84
2022/01/30 02:23:55;;;;;;;11.05;4.05;;;;;;;6.77;52.38;98346.84;4394580;32;20083;-84
2022/01/30 02:25:41;;;;;;;11.00;3.53;;;;;;;6.71;52.86;98334.06;4393260;32;20193;-85
2022/01/30 02:28:11;;;;;;;10.63;3.83;;;;;;;6.75;53.15;98319.91;4394447;32;20110;-84
2022/01/30 02:30:43;;;;;;;10.23;3.47;;;;;;;6.55;53.65;98310.31;4392906;32;20149;-85
2022/01/30 02:33:08;;;;;;;12.32;3.53;;;;;;;6.47;54.52;98300.22;4394291;32;20112;-84
2022/01/30 02:35:34;;;;;;;13.55;3.62;;;;;;;6.59;54.35;98289.19;4392942;32;20082;-84
2022/01/30 02:38:01;;;;;;;11.43;3.42;;;;;;;6.26;55.49;98297.66;4394146;32;20101;-85
2022/01/30 02:40:27;;;;;;;11.35;3.50;;;;;;;5.94;56.30;98293.81;4393841;32;20086;-85
2022/01/30 02:42:54;;;;;;;11.80;3.28;;;;;;;6.15;56.25;98289.44;4394127;32;20116;-83
2022/01/30 02:45:22;;;;;;;10.68;3.15;;;;;;;6.38;55.72;98291.03;4394087;32;20090;-85
2022/01/30 02:48:11;;;;;;;10.32;3.70;;;;;;;6.62;55.16;98280.34;4394001;32;20082;-85
2022/01/30 02:50:53;;;;;;;;;;;;;;;6.62;55.22;98291.66;4403646;32;20508;-85
2022/01/30 02:53:24;;;;;;;9.38;3.10;;;;;;;6.42;55.91;98284.72;4394182;32;19982;-85
2022/01/30 02:55:50;;;;;;;10.52;3.47;;;;;;;6.29;56.84;98260.88;4405033;32;20556;-85
2022/01/30 02:58:16;;;;;;;11.07;3.50;;;;;;;6.40;56.44;98254.34;4404341;32;20093;-85
2022/01/30 03:00:42;;;;;;;11.88;3.50;;;;;;;6.49;56.11;98248.69;4409072;32;20106;-85
2022/01/30 03:03:07;;;;;;;11.52;3.20;;;;;;;6.62;55.86;98236.69;4408986;32;20148;-85
2022/01/30 03:05:32;;;;;;;11.32;3.83;;;;;;;6.53;56.39;98260.69;4408836;32;20139;-85
2022/01/30 03:07:58;;;;;;;9.98;3.17;;;;;;;6.49;56.69;98257.38;4408988;32;20094;-85
2022/01/30 03:10:23;;;;;;;10.68;3.25;;;;;;;6.40;57.03;98259.56;4408090;32;20145;-85
2022/01/30 03:12:49;;;;;;;11.40;3.35;;;;;;;6.48;57.03;98258.28;4409150;32;20094;-85
2022/01/30 03:15:14;;;;;;;11.18;3.25;;;;;;;6.49;56.94;98249.53;4409407;32;20136;-85
2022/01/30 03:17:40;;;;;;;12.02;3.03;;;;;;;6.55;57.31;98252.75;4396996;32;20086;-85
2022/01/30 03:20:07;;;;;;;9.65;3.15;;;;;;;6.64;56.75;98255.78;4410650;32;20374;-85
2022/01/30 03:22:32;;;;;;;9.65;2.87;;;;;;;6.73;56.78;98235.34;4410753;32;20165;-85
2022/01/30 03:24:58;;;;;;;11.35;3.20;;;;;;;6.50;57.62;98235.50;4409545;32;20389;-85
2022/01/30 03:27:24;;;;;;;11.70;3.55;;;;;;;6.63;57.46;98222.69;4410708;32;20490;-85
2022/01/30 03:29:52;;;;;;;10.07;3.33;;;;;;;6.75;57.34;98229.12;4409419;32;20114;-85
2022/01/30 03:32:18;;;;;;;10.23;3.17;;;;;;;6.79;57.52;98227.19;4396906;32;20403;-85
2022/01/30 03:34:44;;;;;;;10.45;3.62;;;;;;;6.41;58.73;98225.50;4410660;32;20174;-86
2022/01/30 03:37:09;;;;;;;9.05;2.83;;;;;;;6.75;58.37;98216.03;4410576;32;20109;-85
2022/01/30 03:39:35;;;;;;;10.63;3.00;;;;;;;6.52;59.18;98217.13;4396880;32;20110;-85
2022/01/30 03:42:00;;;;;;;7.95;2.45;;;;;;;6.66;58.94;98208.59;4409446;32;20122;-85
2022/01/30 03:44:25;;;;;;;9.27;2.80;;;;;;;6.70;58.85;98207.53;4410585;32;20098;-85
2022/01/30 03:46:51;;;;;;;9.27;2.62;;;;;;;6.91;58.41;98196.97;4409419;32;20085;-85
2022/01/30 03:49:16;;;;;;;9.18;2.85;;;;;;;6.72;59.40;98212.69;4410440;32;20148;-85
2022/01/30 03:51:42;;;;;;;8.77;2.50;;;;;;;6.80;59.43;98207.94;4410552;32;20102;-86
2022/01/30 03:54:07;;;;;;;9.38;2.67;;;;;;;6.97;58.90;98215.81;4410576;32;20396;-86
2022/01/30 03:56:32;;;;;;;6.60;2.05;;;;;;;7.12;58.54;98201.13;4410572;32;20102;-85
2022/01/30 03:58:58;;;;;;;7.87;2.17;;;;;;;7.19;58.77;98193.81;4410379;32;20484;-85
2022/01/30 04:01:23;;;;;;;5.25;1.65;;;;;;;7.15;58.96;98205.38;4410387;32;20164;-85
2022/01/30 04:03:49;;;;;;;5.40;1.65;;;;;;;6.96;60.05;98164.37;4409350;32;20117;-85
2022/01/30 04:06:14;;;;;;;5.87;1.75;;;;;;;7.14;59.32;98162.59;4409315;32;20113;-85
2022/01/30 04:08:39;;;;;;;4.55;1.40;;;;;;;7.29;59.07;98158.38;4410399;32;20097;-85
2022/01/30 04:11:05;;;;;;;5.43;1.23;;;;;;;7.20;59.25;98151.81;4410335;32;20094;-85
2022/01/30 04:13:31;;;;;;;5.68;1.30;;;;;;;7.59;58.00;98158.56;4410504;32;20469;-85
2022/01/30 04:15:56;;;;;;;4.70;1.27;;;;;;;7.75;57.50;98155.13;4410342;32;20169;-85
2022/01/30 04:18:22;;;;;;;6.50;1.30;;;;;;;7.65;57.84;98144.28;4410452;32;20151;-86
2022/01/30 04:20:48;;;;;;;5.68;1.70;;;;;;;7.96;57.18;98156.59;4396490;32;20126;-85
2022/01/30 04:23:13;;;;;;;6.50;2.00;;;;;;;8.05;56.68;98156.09;4410476;32;20117;-85
2022/01/30 04:25:39;;;;;;;6.78;2.10;;;;;;;8.10;56.35;98157.63;4410342;32;20090;-85
2022/01/30 04:28:05;;;;;;;8.10;1.77;;;;;;;8.17;55.92;98143.22;4409761;32;20094;-86
2022/01/30 04:30:30;;;;;;;6.20;1.95;;;;;;;8.01;55.99;98138.81;4410268;32;20091;-85
2022/01/30 04:32:56;;;;;;;5.53;1.52;;;;;;;7.77;56.82;98148.03;4410277;32;20457;-85
2022/01/30 04:35:28;;;;;;;4.20;1.30;;;;;;;7.31;58.66;98150.44;4410228;32;20086;-85
2022/01/30 04:57:18;;;;;;;3.28;1.00;;;;;;;7.97;58.79;98110.22;4410087;32;20100;-86
2022/01/30 05:00:08;;;;;;;4.62;1.25;;;;;;;7.74;59.97;98130.66;4410061;32;20120;-85
2022/01/30 05:02:46;;;;;;;3.58;1.00;;;;;;;8.30;58.57;98112.75;4409544;32;20120;-85
2022/01/30 05:07:48;;;;;;;3.10;1.12;;;;;;;8.16;58.74;98121.38;4410003;32;20098;-86
2022/01/30 05:10:13;;;;;;;1.98;0.90;;;;;;;8.44;58.00;98110.22;4410068;32;20094;-85
2022/01/30 05:12:52;;;;;;;2.65;1.00;;;;;;;8.52;57.67;98116.81;4410043;32;20097;-85
2022/01/30 05:15:19;;;;;;;3.12;1.17;;;;;;;8.63;57.31;98120.53;4410194;32;20220;-86
2022/01/30 05:17:45;;;;;;;5.00;1.20;;;;;;;8.33;58.29;98123.06;4410102;32;20144;-86
2022/01/30 05:20:11;;;;;;;3.67;1.17;;;;;;;8.46;57.92;98113.63;4409996;32;20090;-86
2022/01/30 05:22:36;;;;;;;5.03;1.23;;;;;;;8.59;57.66;98124.25;4396174;32;20106;-85
2022/01/30 05:25:03;;;;;;;4.18;1.20;;;;;;;8.60;57.61;98097.06;4409951;32;20081;-86
2022/01/30 05:27:29;;;;;;;4.50;1.12;;;;;;;8.64;57.52;98097.75;4408769;32;20158;-85
2022/01/30 05:29:54;;;;;;;3.00;0.90;;;;;;;8.45;58.04;98109.28;4409871;32;20118;-85
2022/01/30 05:32:20;;;;;;;4.28;1.15;;;;;;;8.19;58.96;98094.13;4409894;32;20090;-85
2022/01/30 05:34:46;;;;;;;2.72;0.90;;;;;;;8.21;58.73;98102.78;4409961;32;20115;-86
2022/01/30 05:37:15;;;;;;;1.20;0.70;;;;;;;8.10;58.92;98116.50;4395877;32;20090;-85
2022/01/30 05:39:41;;;;;;;2.05;0.80;;;;;;;8.06;59.35;98113.19;4407557;32;20181;-85
2022/01/30 05:42:07;;;;;;;2.85;0.75;;;;;;;7.93;59.41;98093.81;4408739;32;20130;-85
2022/01/30 05:47:21;;;;;;;1.37;0.60;;;;;;;8.08;59.34;98116.56;4409973;32;20086;-85
2022/01/30 05:49:48;;;;;;;1.83;0.80;;;;;;;8.22;59.19;98107.91;4397058;32;20119;-86
2022/01/30 05:52:13;;;;;;;2.08;0.65;;;;;;;8.30;59.21;98107.50;4409868;32;20102;-86
2022/01/30 05:54:39;;;;;;;2.75;0.70;;;;;;;8.09;59.96;98122.66;4409787;32;20082;-85
2022/01/30 05:57:04;;;;;;;4.12;0.80;;;;;;;8.32;59.50;98117.91;4408485;32;20078;-85
2022/01/30 05:59:30;;;;;;;1.55;0.73;;;;;;;8.42;59.24;98122.59;4409811;32;20434;-85
2022/01/30 06:01:55;;;;;;;1.77;0.80;;;;;;;8.20;59.86;98138.66;4409785;32;20128;-84
2022/01/30 06:04:21;;;;;;;2.00;0.70;;;;;;;8.20;60.07;98135.19;4409657;32;20094;-85
2022/01/30 06:06:49;;;;;;;1.60;0.80;;;;;;;8.31;59.84;98122.31;4409749;32;20109;-85
2022/01/30 06:11:43;;;;;;;3.62;1.10;;;;;;;8.25;60.33;98146.28;4408312;32;20162;-85
2022/01/30 06:14:09;;;;;;;1.98;0.82;;;;;;;8.06;60.94;98157.78;4409611;32;20082;-86
2022/01/30 06:16:34;;;;;;;1.70;0.90;;;;;;;8.17;60.83;98137.97;4408458;32;20155;-86
2022/01/30 06:19:01;;;;;;;1.85;0.80;;;;;;;8.14;61.11;98138.16;4407234;32;20103;-83
2022/01/30 06:21:26;;;;;;;1.08;0.65;;;;;;;8.03;61.35;98159.72;4419110;32;20415;-83
2022/01/30 06:23:52;;;;;;;3.15;1.20;;;;;;;8.04;61.66;98166.66;4424655;32;20089;-85
2022/01/30 06:26:17;;;;;;;2.40;1.00;;;;;;;8.21;61.27;98144.75;4424511;32;20157;-84
2022/01/30 06:28:43;;;;;;;1.90;0.80;;;;;;;8.51;60.40;98151.88;4424651;32;20097;-83
2022/01/30 06:31:08;;;;;;;2.42;0.93;;;;;;;8.40;60.59;98155.06;4410546;32;20119;-84
2022/01/30 06:33:34;;;;;;;3.08;0.90;;;;;;;8.41;60.85;98175.16;4424183;32;20082;-83
2022/01/30 06:35:59;;;;;;;2.78;1.00;;;;;;;8.38;61.02;98197.16;4410509;32;20089;-83
2022/01/30 06:38:24;;;;;;;4.43;1.12;;;;;;;8.33;61.55;98187.84;4424222;32;20116;-86
2022/01/30 06:40:50;;;;;;;3.42;1.17;;;;;;;8.30;62.15;98175.72;4424596;32;20102;-83
2022/01/30 06:43:16;;;;;;;3.92;1.10;;;;;;;8.49;61.35;98175.59;4424746;32;20418;-84
2022/01/30 06:45:42;;;;;;;3.03;1.20;;;;;;;8.37;61.60;98169.22;4424340;32;20094;-84
2022/01/30 06:48:08;;;;;;;3.53;1.20;;;;;;;8.54;60.88;98167.47;4424727;32;20120;-84
2022/01/30 06:50:34;;;;;;;2.53;1.17;;;;;;;8.21;61.73;98181.50;4424057;32;20362;-85
2022/01/30 06:52:59;;;;;;;2.72;1.20;;;;;;;8.19;61.99;98180.72;4424663;32;20089;-85
2022/01/30 06:55:25;;;;;;;2.75;1.10;;;;;;;8.33;61.54;98182.59;4410264;32;20089;-84
2022/01/30 06:57:50;;;;;;;2.83;0.93;;;;;;;8.38;60.92;98180.56;4407360;32;20119;-85
2022/01/30 07:00:16;;;;;;;2.80;1.12;;;;;;;8.30;61.19;98180.97;4408259;32;20114;-84
2022/01/30 07:02:42;;;;;;;6.82;1.23;;;;;;;8.42;61.24;98177.72;4409143;32;20117;-86
2022/01/30 07:05:08;;;;;;;2.45;0.90;;;;;;;8.46;60.56;98154.78;4407803;32;20438;-83
2022/01/30 07:07:33;;;;;;;4.18;0.93;;;;;;;8.21;60.65;98173.63;4408958;32;20106;-83
2022/01/30 07:09:59;;;;;;;3.40;0.77;;;;;;;8.14;60.45;98195.88;4408367;32;20464;-84
2022/01/30 07:12:24;;;;;;;2.12;0.80;;;;;;;8.02;59.55;98166.75;4408871;32;20130;-85
2022/01/30 07:14:50;;;;;;;2.85;0.80;;;;;;;7.98;59.30;98164.37;4408884;32;20456;-85
2022/01/30 07:17:15;;;;;;;3.70;0.98;;;;;;;8.11;58.88;98156.69;4380934;32;20137;-85
2022/01/30 07:19:41;;;;;;;5.45;0.90;;;;;;;8.19;58.19;98136.09;4386790;32;20125;-84
2022/01/30 07:22:07;;;;;;;4.37;0.75;;;;;;;7.86;57.74;98129.16;4393146;32;20114;-85
2022/01/30 07:24:33;;;;;;;1.62;0.80;;;;;;;7.86;56.30;98126.53;4393391;32;20213;-86
2022/01/30 07:26:58;;;;;;;3.28;0.80;;;;;;;7.76;56.39;98127.97;4393535;32;20106;-85
2022/01/30 07:29:24;;;;;;;2.65;0.65;;;;;;;7.99;56.15;98129.34;4393400;32;20111;-85
2022/01/30 07:31:50;;;;;;;1.92;0.60;;;;;;;7.77;56.07;98124.44;4393399;32;20121;-84
2022/01/30 07:34:15;;;;;;;2.67;0.68;;;;;;;7.87;54.89;98094.97;4393106;32;20383;-84
2022/01/30 07:36:42;;;;;;;2.55;0.70;;;;;;;7.62;54.04;98126.91;4393295;32;20095;-84
2022/01/30 07:39:11;;;;;;;4.47;0.83;;;;;;;7.73;54.23;98134.22;4404798;32;20459;-83
2022/01/30 07:41:37;;;;;;;3.65;0.70;;;;;;;7.87;53.58;98173.66;4393388;32;20082;-84
2022/01/30 07:44:02;;;;;;;1.85;0.70;;;;;;;7.54;53.37;98126.50;4404619;32;20466;-85
2022/01/30 07:46:29;;;;;;;3.05;0.70;;;;;;;7.79;52.57;98136.50;4392780;32;20124;-83
2022/01/30 07:48:55;;;;;;;2.50;0.77;;;;;;;7.80;51.95;98158.31;4393181;32;20118;-85
2022/01/30 07:51:20;;;;;;;5.80;0.62;;;;;;;8.01;51.73;98159.78;4393080;32;20340;-84
2022/01/30 07:53:46;;;;;;;4.30;0.70;;;;;;;8.06;51.03;98149.91;4393111;32;20086;-85
2022/01/30 07:56:12;;;;;;;5.22;0.70;;;;;;;7.79;51.23;98147.00;4393405;32;20107;-85
2022/01/30 07:58:38;;;;;;;5.40;1.10;;;;;;;7.97;51.13;98147.78;4405655;32;20124;-85
2022/01/30 08:01:03;;;;;;;2.20;0.75;;;;;;;7.90;49.43;98164.81;4408388;32;20106;-84
2022/01/30 08:03:29;;;;;;;3.47;0.70;;;;;;;7.62;49.83;98174.09;4409907;32;20129;-85
2022/01/30 08:05:54;;;;;;;4.43;0.70;;;;;;;7.85;49.40;98156.31;4410576;32;20156;-85
2022/01/30 08:08:20;;;;;;;2.60;0.60;;;;;;;7.91;48.95;98192.69;4410293;32;20089;-84
2022/01/30 08:10:45;;;;;;;3.65;0.82;;;;;;;8.17;48.30;98198.31;4396082;32;20140;-85
2022/01/30 08:13:11;;;;;;;3.22;0.73;;;;;;;8.23;48.02;98203.25;4410505;32;20134;-85
2022/01/30 08:15:36;;;;;;;4.28;0.70;;;;;;;8.59;47.35;98202.16;4410525;32;20090;-84
2022/01/30 08:18:02;;;;;;;3.80;0.85;;;;;;;8.80;46.84;98208.84;4410484;32;20097;-85
2022/01/30 08:20:28;;;;;;;3.22;0.73;;;;;;;8.79;47.09;98233.41;4410515;32;20110;-84
2022/01/30 08:22:55;;;;;;;3.45;0.90;;;;;;;8.78;48.87;98176.56;4410235;32;20090;-85
2022/01/30 08:25:23;;;;;;;3.05;0.80;;;;;;;8.42;52.71;98214.47;4396763;32;20233;-86
2022/01/30 08:27:50;;;;;;;3.47;0.90;;;;;;;8.08;54.01;98208.38;4396474;32;20114;-84
2022/01/30 08:30:15;;;;;;;5.22;1.20;;;;;;;7.94;54.77;98217.91;4410120;32;20120;-84
2022/01/30 08:32:43;;;;;;;6.20;0.90;;;;;;;8.02;54.17;98239.34;4409017;32;20114;-85
2022/01/30 08:35:10;;;;;;;4.65;1.00;;;;;;;7.96;54.58;98250.16;4396113;32;20125;-83
2022/01/30 08:37:35;;;;;;;5.90;1.10;;;;;;;7.91;54.36;98252.19;4410237;32;20117;-83
2022/01/30 08:40:06;;;;;;;2.50;0.73;;;;;;;7.87;54.33;98247.09;4410235;32;20116;-85
2022/01/30 08:42:31;;;;;;;5.22;1.00;;;;;;;8.11;53.58;98228.34;4410141;32;20536;-85
2022/01/30 08:44:57;;;;;;;6.95;1.27;;;;;;;7.91;53.59;98241.69;4408998;32;20157;-84
2022/01/30 08:47:22;;;;;;;6.97;1.10;;;;;;;7.77;53.12;98238.00;4409769;32;20164;-85
2022/01/30 08:49:48;;;;;;;4.07;1.08;;;;;;;8.03;52.46;98239.25;4410075;32;20513;-84
2022/01/30 08:52:16;;;;;;;5.93;1.10;;;;;;;8.19;51.69;98235.81;4410185;32;20113;-84
2022/01/30 08:54:42;;;;;;;5.97;0.93;;;;;;;8.04;51.31;98254.06;4396186;32;20106;-84
2022/01/30 08:57:07;;;;;;;6.22;0.93;;;;;;;8.18;51.04;98257.75;4410022;32;20174;-86
2022/01/30 08:59:33;;;;;;;6.25;1.08;;;;;;;8.45;50.08;98263.31;4409698;32;20112;-84
2022/01/30 09:01:58;;;;;;;8.98;1.15;;;;;;;8.38;49.43;98244.41;4408786;32;20090;-85
2022/01/30 09:04:24;;;;;;;5.20;1.02;;;;;;;8.35;48.76;98275.22;4409833;32;20140;-84
2022/01/30 09:06:49;;;;;;;4.20;0.88;;;;;;;8.19;48.68;98260.28;4410022;32;20082;-85
2022/01/30 09:09:14;;;;;;;3.92;0.88;;;;;;;8.48;46.82;98243.91;4409842;32;20086;-83
2022/01/30 09:11:40;;;;;;;4.32;1.05;;;;;;;8.37;47.09;98226.94;4409601;32;20192;-84
2022/01/30 09:14:07;;;;;;;6.10;0.98;;;;;;;8.37;46.88;98266.31;4395872;32;20480;-84
2022/01/30 09:16:33;;;;;;;4.00;0.80;;;;;;;8.59;46.56;98279.16;4409896;32;20099;-84
2022/01/30 09:18:58;;;;;;;4.30;0.90;;;;;;;8.43;46.82;98280.94;4409980;32;20324;-84
2022/01/30 09:21:24;;;;;;;3.92;0.80;;;;;;;8.79;46.48;98271.97;4409892;32;20104;-84
2022/01/30 09:23:49;;;;;;;3.97;0.77;;;;;;;8.63;45.87;98292.97;4409585;32;20098;-84
2022/01/30 09:26:14;;;;;;;3.72;0.70;;;;;;;8.49;44.84;98235.13;4409963;32;20138;-85
2022/01/30 09:28:40;;;;;;;4.18;0.70;;;;;;;8.53;44.70;98270.78;4409594;32;20094;-84
2022/01/30 09:31:05;;;;;;;2.33;0.60;;;;;;;8.77;44.29;98240.53;4409780;32;20093;-85
2022/01/30 09:33:31;;;;;;;3.75;0.85;;;;;;;8.56;43.94;98228.62;4409719;32;20149;-84
2022/01/30 09:35:56;;;;;;;2.72;0.77;;;;;;;8.72;43.73;98226.81;4409555;32;20101;-84
2022/01/30 09:38:23;;;;;;;4.72;0.77;;;;;;;8.56;43.36;98252.25;4409730;32;20094;-84
2022/01/30 09:40:54;;;;;;;1.37;0.60;;;;;;;8.77;43.65;98227.41;4409755;32;20108;-84
2022/01/30 09:43:21;;;;;;;5.87;0.80;;;;;;;8.53;44.01;98210.37;4408752;32;20098;-84
2022/01/30 09:45:47;;;;;;;3.25;0.60;;;;;;;8.75;42.95;98228.41;4408532;32;20120;-84
2022/01/30 09:48:13;;;;;;;2.90;0.62;;;;;;;8.97;42.65;98212.31;4409468;32;20094;-85
2022/01/30 09:50:39;;;;;;;3.75;0.70;;;;;;;8.98;42.60;98238.50;4408411;32;20120;-84
2022/01/30 09:53:05;;;;;;;6.40;1.02;;;;;;;8.58;43.24;98266.13;4409658;32;20098;-83
2022/01/30 09:55:30;;;;;;;4.55;0.80;;;;;;;8.79;43.38;98259.69;4409674;32;20328;-85
2022/01/30 09:57:56;;;;;;;6.55;0.90;;;;;;;9.05;43.09;98250.31;4409413;32;20422;-85
2022/01/30 10:00:21;;;;;;;3.53;0.70;;;;;;;8.98;42.93;98283.16;4409152;32;20101;-85
2022/01/30 10:02:46;;;;;;;4.65;0.70;;;;;;;8.82;43.32;98235.84;4409438;32;20536;-86
2022/01/30 10:05:13;;;;;;;5.53;1.77;;;;;;;8.56;43.66;98263.59;4408420;32;20136;-84
2022/01/30 10:07:58;;;;;;;6.47;0.77;;;;;;;8.76;43.70;98245.88;4409566;32;20160;-85
2022/01/30 10:10:26;;;;;;;6.37;0.80;;;;;;;9.12;42.34;98263.13;4408152;32;20086;-85
2022/01/30 10:13:02;;;;;;;5.07;0.60;;;;;;;9.23;42.03;98269.47;4409259;32;20087;-87
2022/01/30 10:15:28;;;;;;;4.28;0.50;;;;;;;8.95;42.65;98298.22;4395581;32;20110;-86
2022/01/30 10:17:53;;;;;;;3.92;0.55;;;;;;;8.42;43.81;98306.34;4409370;32;20086;-85
2022/01/30 10:20:21;;;;;;;2.45;0.60;;;;;;;7.97;44.79;98291.19;4409428;32;20086;-85
2022/01/30 10:22:50;;;;;;;4.40;0.68;;;;;;;7.87;44.15;98256.72;4395649;32;20107;-85
2022/01/30 10:25:23;;;;;;;4.90;0.68;;;;;;;7.90;43.62;98289.81;4407245;32;20127;-85
2022/01/30 10:27:49;;;;;;;3.30;0.40;;;;;;;7.87;43.10;98251.50;4409388;32;20125;-85
2022/01/30 10:30:21;;;;;;;2.53;0.65;;;;;;;8.05;43.12;98268.91;4409322;32;20086;-86
2022/01/30 10:32:55;;;;;;;1.98;0.47;;;;;;;7.80;43.42;98261.47;4409398;32;20116;-84
2022/01/30 10:35:20;;;;;;;3.37;0.60;;;;;;;7.37;44.65;98258.38;4407968;32;20102;-85
2022/01/30 10:37:46;;;;;;;5.90;0.75;;;;;;;7.10;45.38;98286.78;4408521;32;20513;-84
2022/01/30 10:40:17;;;;;;;3.78;0.60;;;;;;;6.95;46.08;98282.28;4408527;32;20134;-84
2022/01/30 10:42:51;;;;;;;3.83;0.80;;;;;;;7.19;45.49;98280.28;4395567;32;20109;-85
2022/01/30 10:45:22;;;;;;;2.83;0.68;;;;;;;7.42;45.01;98279.97;4409115;32;20078;-85
2022/01/30 10:47:47;;;;;;;6.45;1.00;;;;;;;7.47;44.99;98292.84;4409241;32;20108;-85
2022/01/30 10:50:15;;;;;;;5.95;0.77;;;;;;;7.48;44.80;98279.66;4409021;32;20086;-85
2022/01/30 10:52:56;;;;;;;4.50;0.60;;;;;;;7.88;44.15;98263.69;4409243;32;20125;-86
2022/01/30 10:55:36;;;;;;;4.28;0.75;;;;;;;7.99;44.15;98261.31;4395120;32;20132;-85
2022/01/30 10:58:10;;;;;;;2.35;0.60;;;;;;;7.64;44.62;98253.50;4408969;32;20149;-84
2022/01/30 11:00:54;;;;;;;4.05;0.80;;;;;;;7.53;45.26;98213.06;4382761;32;20108;-85
2022/01/30 11:03:41;;;;;;;3.62;0.80;;;;;;;7.74;45.00;98269.63;4382868;32;20611;-86
2022/01/30 11:06:11;;;;;;;3.25;0.70;;;;;;;8.16;43.67;98281.44;4409420;32;20157;-86
2022/01/30 11:08:40;;;;;;;3.90;0.70;;;;;;;8.07;43.15;98271.41;4408645;32;20081;-82
2022/01/30 11:11:34;;;;;;;4.95;1.00;;;;;;;8.25;42.91;98251.25;4395401;32;20090;-86
2022/01/30 11:19:20;;;;;;;3.53;0.70;;;;;;;9.00;39.81;98244.50;4408601;32;20116;-86
2022/01/30 11:21:50;;;;;;;4.97;0.85;;;;;;;9.00;39.21;98233.13;4408722;32;20128;-85
2022/01/30 11:24:17;;;;;;;3.08;0.80;;;;;;;8.80;40.10;98247.37;4395112;32;20133;-86
2022/01/30 11:26:43;;;;;;;5.53;0.90;;;;;;;8.98;40.29;98256.88;4382299;32;20161;-85
2022/01/30 11:29:10;;;;;;;7.62;1.08;;;;;;;8.95;40.46;98232.56;4408866;32;20171;-85
2022/01/30 11:31:36;;;;;;;7.15;1.12;;;;;;;8.55;41.90;98237.41;4382236;32;20120;-85
2022/01/30 11:34:03;;;;;;;5.87;1.00;;;;;;;8.36;43.36;98243.62;4408966;32;20117;-86
2022/01/30 11:36:29;;;;;;;6.82;1.35;;;;;;;8.44;42.69;98243.22;4408880;32;20204;-87
2022/01/30 11:38:54;;;;;;;5.75;0.88;;;;;;;8.59;42.48;98231.06;4396360;32;20091;-86
2022/01/30 11:41:21;;;;;;;2.67;0.73;;;;;;;8.72;41.55;98247.81;4410464;32;20418;-84
2022/01/30 11:44:17;;;;;;;7.10;1.15;;;;;;;8.60;41.96;98175.00;4410368;32;20128;-86
2022/01/30 11:47:03;;;;;;;5.85;1.02;;;;;;;8.36;41.49;98217.37;4410656;32;20121;-84
2022/01/30 11:49:41;;;;;;;4.28;0.90;;;;;;;8.41;41.57;98223.25;4399520;32;20094;-85
2022/01/30 11:52:09;;;;;;;8.65;1.35;;;;;;;8.55;41.61;98250.53;4396507;32;20141;-86
2022/01/30 11:54:35;;;;;;;7.18;0.93;;;;;;;8.73;41.66;98217.16;4410474;32;20124;-84
2022/01/30 11:57:01;;;;;;;6.15;0.95;;;;;;;8.63;42.05;98212.44;4410000;32;20442;-84
2022/01/30 11:59:39;;;;;;;3.40;0.82;;;;;;;8.33;42.03;98219.34;4396602;32;20122;-86
2022/01/30 12:02:25;;;;;;;5.80;0.70;;;;;;;8.56;41.42;98220.75;4410426;32;20114;-85
2022/01/30 12:04:57;;;;;;;4.47;0.70;;;;;;;8.36;41.24;98188.50;4410435;32;20156;-87
2022/01/30 12:07:33;;;;;;;4.37;1.08;;;;;;;8.50;40.81;98270.94;4410377;32;20102;-85
2022/01/30 12:10:25;;;;;;;6.32;1.12;;;;;;;8.39;40.11;98221.62;4409992;32;20090;-86
2022/01/30 12:13:03;;;;;;;5.40;1.05;;;;;;;8.46;39.34;98208.13;4410372;32;20078;-84
2022/01/30 12:15:42;;;;;;;5.95;1.20;;;;;;;8.44;39.41;98236.22;4396510;32;20110;-87
2022/01/30 12:18:08;;;;;;;7.80;1.00;;;;;;;8.57;39.09;98176.00;4410338;32;20082;-86
2022/01/30 12:20:56;;;;;;;4.50;0.85;;;;;;;8.60;39.98;98230.97;4409983;32;20085;-85
2022/01/30 12:23:24;;;;;;;3.85;0.80;;;;;;;8.63;39.91;98236.06;4400650;32;20094;-86
2022/01/30 12:25:54;;;;;;;6.18;0.82;;;;;;;8.68;40.55;98225.28;4410203;32;20090;-86
2022/01/30 12:28:19;;;;;;;6.78;0.90;;;;;;;8.54;40.28;98239.19;4396349;32;20259;-85
2022/01/30 12:30:47;;;;;;;4.05;1.00;;;;;;;8.62;40.02;98218.59;4396259;32;20363;-86
2022/01/30 12:33:34;;;;;;;5.87;1.00;;;;;;;8.71;39.67;98245.28;4409889;32;20108;-86
2022/01/30 12:36:04;;;;;;;4.53;0.62;;;;;;;8.54;40.36;98219.97;4396356;32;20071;-84
2022/01/30 12:38:34;;;;;;;4.15;0.60;;;;;;;8.49;40.25;98264.84;4410143;32;20121;-85